Yeaman, Kentucky
Current Conditions -  °F | °C
As of 3:56 AM on Saturday 01 Nov 2014 (Local Time) from KOWB Reporting Station
Clear Clear  
Wind Chill: 27°   Ceiling: Unl
Heat Index: 37°   Visibility: 10mi
Dew Point: 26°   Wind: 16mph
Humidity: 65%   Direction: 360°N
Pressure: 30.23"   Gusts: 22mph
Location:  37.6216°N, 86.7165°W
Report Text: KOWB 010856Z AUTO 36014G19KT 10SM CLR 03/M03 A3023 RMK AO2 TSNO 51012 T00271033 SLP240
Loading
Personal Weather Stations






























Interactive Weather Map
Tropical Storm Tracking
New forecast layout! Learn more

10-Day Weather Forecast

Advertisements
Track Severe Weather on mobile